createdAt,value
2018-02-22T00:00:05.403Z,1024.54
2018-02-22T00:05:03.624Z,1024.55
2018-02-22T00:10:03.253Z,1024.53
2018-02-22T00:15:02.738Z,1024.53
2018-02-22T00:20:03.199Z,1024.43
2018-02-22T00:25:03.688Z,1024.42
2018-02-22T00:30:03.122Z,1024.45
2018-02-22T00:35:03.595Z,1024.38
2018-02-22T00:40:03.113Z,1024.31
2018-02-22T00:45:03.559Z,1024.36
2018-02-22T00:50:03.111Z,1024.33
2018-02-22T00:55:03.605Z,1024.34
2018-02-22T01:00:03.044Z,1024.36
2018-02-22T01:05:03.244Z,1024.31
2018-02-22T01:10:02.716Z,1024.27
2018-02-22T01:15:03.133Z,1024.29
2018-02-22T01:20:03.635Z,1024.28
2018-02-22T01:25:03.067Z,1024.28
2018-02-22T01:30:03.539Z,1024.25
2018-02-22T01:35:03.054Z,1024.24
2018-02-22T01:40:03.544Z,1024.18
2018-02-22T01:45:02.938Z,1024.2
2018-02-22T01:50:03.436Z,1024.18
2018-02-22T01:55:02.913Z,1024.15
2018-02-22T02:00:03.468Z,1024.13
2018-02-22T02:05:02.943Z,1024.17
2018-02-22T02:10:03.574Z,1024.06
2018-02-22T02:15:03.126Z,1024.06
2018-02-22T02:20:03.589Z,1024.02
2018-02-22T02:25:02.981Z,1023.99
2018-02-22T02:30:03.488Z,1023.94
2018-02-22T02:35:02.901Z,1023.96
2018-02-22T02:40:03.403Z,1023.96
2018-02-22T02:45:02.817Z,1023.95
2018-02-22T02:50:03.286Z,1023.89
2018-02-22T02:55:02.687Z,1023.85
2018-02-22T03:00:02.897Z,1023.88
2018-02-22T03:05:03.380Z,1023.9
2018-02-22T03:10:02.884Z,1023.88
2018-02-22T03:15:03.345Z,1023.9
2018-02-22T03:20:02.816Z,1023.88
2018-02-22T03:25:03.294Z,1023.84
2018-02-22T03:30:02.796Z,1023.81
2018-02-22T03:35:03.329Z,1023.79
2018-02-22T03:40:02.853Z,1023.81
2018-02-22T03:45:03.333Z,1023.82
2018-02-22T03:50:02.765Z,1023.82
2018-02-22T03:55:03.332Z,1023.77
2018-02-22T04:00:02.846Z,1023.81
2018-02-22T04:05:03.279Z,1023.9
2018-02-22T04:10:02.858Z,1023.95
2018-02-22T04:15:03.262Z,1023.86
2018-02-22T04:20:03.687Z,1023.9
2018-02-22T04:25:03.112Z,1023.91
2018-02-22T04:30:03.564Z,1024.01
2018-02-22T04:35:03.003Z,1024
2018-02-22T04:40:03.489Z,1024.04
2018-02-22T04:45:02.948Z,1024.13
2018-02-22T04:50:03.525Z,1024.16
2018-02-22T04:55:02.926Z,1024.1
2018-02-22T05:00:03.433Z,1024.14
2018-02-22T05:05:02.838Z,1024.17
2018-02-22T05:10:03.403Z,1024.23
2018-02-22T05:15:02.824Z,1024.21
2018-02-22T05:20:03.342Z,1024.2
2018-02-22T05:25:03.733Z,1024.16
2018-02-22T05:30:02.772Z,1024.21
2018-02-22T05:35:03.225Z,1024.17
2018-02-22T05:40:03.674Z,1024.21
2018-02-22T05:45:03.170Z,1024.21
2018-02-22T05:50:03.605Z,1024.17
2018-02-22T05:55:02.994Z,1024.23
2018-02-22T06:00:03.428Z,1024.23
2018-02-22T06:05:02.881Z,1024.23
2018-02-22T06:10:03.335Z,1024.28
2018-02-22T06:15:02.817Z,1024.28
2018-02-22T06:20:03.522Z,1024.35
2018-02-22T06:25:03.025Z,1024.24
2018-02-22T06:30:03.458Z,1024.27
2018-02-22T06:35:02.947Z,1024.22
2018-02-22T06:40:03.443Z,1024.34
2018-02-22T06:45:03.211Z,1024.35
2018-02-22T06:50:02.718Z,1024.42
2018-02-22T06:55:03.172Z,1024.47
2018-02-22T07:00:03.615Z,1024.53
2018-02-22T07:05:03.177Z,1024.58
2018-02-22T07:10:03.690Z,1024.54
2018-02-22T07:15:08.205Z,1024.55
2018-02-22T07:20:03.270Z,1024.58
2018-02-22T07:25:02.715Z,1024.59
2018-02-22T07:30:03.137Z,1024.62
2018-02-22T07:35:03.753Z,1024.57
2018-02-22T07:40:03.355Z,1024.64
2018-02-22T07:45:02.852Z,1024.67
2018-02-22T07:50:03.410Z,1024.7
2018-02-22T07:55:02.791Z,1024.66
2018-02-22T08:00:03.403Z,1024.71
2018-02-22T08:05:03.003Z,1024.77
2018-02-22T08:10:03.585Z,1024.78
2018-02-22T08:15:03.029Z,1024.78
2018-02-22T08:20:03.531Z,1024.87
2018-02-22T08:25:03.356Z,1024.82
2018-02-22T08:30:02.968Z,1024.86
2018-02-22T08:35:03.515Z,1024.89
2018-02-22T08:40:03.098Z,1024.89
2018-02-22T08:45:03.527Z,1024.8
2018-02-22T08:50:03.007Z,1024.82
2018-02-22T08:55:03.492Z,1024.77
2018-02-22T09:00:02.964Z,1024.74
2018-02-22T09:05:03.425Z,1024.77
2018-02-22T09:10:02.896Z,1024.71
2018-02-22T09:15:03.402Z,1024.77
2018-02-22T09:20:02.895Z,1024.71
2018-02-22T09:25:03.333Z,1024.69
2018-02-22T09:30:02.821Z,1024.7
2018-02-22T09:35:03.303Z,1024.72
2018-02-22T09:40:02.766Z,1024.75
2018-02-22T09:45:03.227Z,1024.69
2018-02-22T09:50:02.745Z,1024.72
2018-02-22T09:55:03.204Z,1024.66
2018-02-22T10:00:03.624Z,1024.63
2018-02-22T10:05:03.011Z,1024.64
2018-02-22T10:10:03.472Z,1024.58
2018-02-22T10:15:02.871Z,1024.5
2018-02-22T10:20:03.494Z,1024.46
2018-02-22T10:25:02.923Z,1024.51
2018-02-22T10:30:03.334Z,1024.53
2018-02-22T10:35:02.853Z,1024.56
2018-02-22T10:40:03.538Z,1024.55
2018-02-22T10:45:03.156Z,1024.49
2018-02-22T10:50:03.808Z,1024.5
2018-02-22T10:55:03.253Z,1024.43
2018-02-22T11:00:02.716Z,1024.41
2018-02-22T11:05:03.171Z,1024.35
2018-02-22T11:10:03.712Z,1024.24
2018-02-22T11:15:03.171Z,1024.25
2018-02-22T11:20:03.604Z,1024.24
2018-02-22T11:25:02.986Z,1024.35
2018-02-22T11:30:03.429Z,1024.22
2018-02-22T11:35:02.872Z,1024.18
2018-02-22T11:40:03.360Z,1024.23
2018-02-22T11:45:02.797Z,1024.16
2018-02-22T11:50:03.246Z,1024.14
2018-02-22T11:55:03.657Z,1024.06
2018-02-22T12:00:03.145Z,1024
2018-02-22T12:05:03.612Z,1023.88
2018-02-22T12:10:03.062Z,1023.85
2018-02-22T12:15:03.527Z,1023.81
2018-02-22T12:20:03.034Z,1023.71
2018-02-22T12:25:03.570Z,1023.66
2018-02-22T12:30:03.043Z,1023.63
2018-02-22T12:35:03.509Z,1023.64
2018-02-22T12:40:02.985Z,1023.63
2018-02-22T12:45:03.380Z,1023.66
2018-02-22T12:50:02.864Z,1023.59
2018-02-22T12:55:03.391Z,1023.68
2018-02-22T13:00:03.019Z,1023.6
2018-02-22T13:05:03.492Z,1023.44
2018-02-22T13:10:03.298Z,1023.42
2018-02-22T13:15:02.887Z,1023.33
2018-02-22T13:20:03.415Z,1023.25
2018-02-22T13:25:02.823Z,1023.21
2018-02-22T13:30:03.675Z,1023.15
2018-02-22T13:35:03.236Z,1023.04
2018-02-22T13:40:02.777Z,1023.03
2018-02-22T13:45:03.284Z,1022.89
2018-02-22T13:50:02.774Z,1022.84
2018-02-22T13:55:03.251Z,1022.79
2018-02-22T14:00:02.797Z,1022.77
2018-02-22T14:05:03.281Z,1022.69
2018-02-22T14:10:02.815Z,1022.69
2018-02-22T14:15:03.287Z,1022.72
2018-02-22T14:20:02.794Z,1022.65
2018-02-22T14:25:03.306Z,1022.55
2018-02-22T14:30:02.889Z,1022.6
2018-02-22T14:35:03.539Z,1022.5
2018-02-22T14:40:03.054Z,1022.46
2018-02-22T14:45:03.596Z,1022.39
2018-02-22T14:50:03.097Z,1022.28
2018-02-22T14:55:03.527Z,1022.36
2018-02-22T15:00:03.010Z,1022.36
2018-02-22T15:05:03.554Z,1022.41
2018-02-22T15:10:03.056Z,1022.35
2018-02-22T15:15:03.695Z,1022.4
2018-02-22T15:20:03.258Z,1022.41
2018-02-22T15:25:03.706Z,1022.44
2018-02-22T15:30:03.136Z,1022.45
2018-02-22T15:35:03.698Z,1022.43
2018-02-22T15:40:03.168Z,1022.41
2018-02-22T15:45:03.664Z,1022.47
2018-02-22T15:50:03.040Z,1022.44
2018-02-22T15:55:03.630Z,1022.38
2018-02-22T16:00:03.104Z,1022.45
2018-02-22T16:05:03.521Z,1022.42
2018-02-22T16:10:03.250Z,1022.34
2018-02-22T16:15:02.722Z,1022.4
2018-02-22T16:20:03.311Z,1022.49
2018-02-22T16:25:02.808Z,1022.52
2018-02-22T16:30:03.266Z,1022.48
2018-02-22T16:35:03.010Z,1022.49
2018-02-22T16:40:03.631Z,1022.45
2018-02-22T16:45:03.080Z,1022.5
2018-02-22T16:50:03.672Z,1022.55
2018-02-22T16:55:03.201Z,1022.58
2018-02-22T17:00:03.642Z,1022.64
2018-02-22T17:05:03.090Z,1022.55
2018-02-22T17:10:02.693Z,1022.68
2018-02-22T17:15:03.130Z,1022.67
2018-02-22T17:20:03.568Z,1022.67
2018-02-22T17:25:03.001Z,1022.7
2018-02-22T17:30:03.617Z,1022.65
2018-02-22T17:35:03.126Z,1022.64
2018-02-22T17:40:03.672Z,1022.68
2018-02-22T17:45:03.138Z,1022.69
2018-02-22T17:50:03.599Z,1022.83
2018-02-22T17:55:03.086Z,1022.83
2018-02-22T18:00:03.558Z,1022.84
2018-02-22T18:05:03.032Z,1022.87
2018-02-22T18:10:03.595Z,1022.89
2018-02-22T18:15:03.102Z,1022.93
2018-02-22T18:20:03.797Z,1022.99
2018-02-22T18:25:03.273Z,1023.01
2018-02-22T18:30:02.703Z,1023.11
2018-02-22T18:35:03.172Z,1023.18
2018-02-22T18:40:02.765Z,1023.18
2018-02-22T18:45:03.383Z,1023.22
2018-02-22T18:50:02.971Z,1023.25
2018-02-22T18:55:03.472Z,1023.32
2018-02-22T19:00:02.879Z,1023.24
2018-02-22T19:05:03.360Z,1023.26
2018-02-22T19:10:02.923Z,1023.24
2018-02-22T19:15:03.410Z,1023.21
2018-02-22T19:20:02.944Z,1023.13
2018-02-22T19:25:03.504Z,1023.09
2018-02-22T19:30:02.993Z,1023.09
2018-02-22T19:35:03.573Z,1023.16
2018-02-22T19:40:03.155Z,1023.17
2018-02-22T19:45:03.672Z,1023.1
2018-02-22T19:50:03.175Z,1023.11
2018-02-22T19:55:03.735Z,1023.19
2018-02-22T20:00:03.184Z,1023.15
2018-02-22T20:05:03.959Z,1023.07
2018-02-22T20:10:03.529Z,1023.13
2018-02-22T20:15:03.026Z,1023.16
2018-02-22T20:20:03.603Z,1023.21
2018-02-22T20:25:03.125Z,1023.17
2018-02-22T20:30:03.646Z,1023.21
2018-02-22T20:35:03.258Z,1023.17
2018-02-22T20:40:02.830Z,1023.13
2018-02-22T20:45:03.350Z,1023.13
2018-02-22T20:50:03.059Z,1023.09
2018-02-22T20:55:03.540Z,1023.09
2018-02-22T21:00:03.117Z,1023.16
2018-02-22T21:05:03.584Z,1023.11
2018-02-22T21:10:03.065Z,1023.23
2018-02-22T21:15:03.499Z,1023.25
2018-02-22T21:20:03.047Z,1023.29
2018-02-22T21:25:03.665Z,1023.27
2018-02-22T21:30:03.087Z,1023.29
2018-02-22T21:35:03.552Z,1023.36
2018-02-22T21:40:03.493Z,1023.34
2018-02-22T21:45:03.043Z,1023.43
2018-02-22T21:50:03.721Z,1023.43
2018-02-22T21:55:03.113Z,1023.35
2018-02-22T22:00:03.671Z,1023.4
2018-02-22T22:05:03.126Z,1023.33
2018-02-22T22:10:02.727Z,1023.35
2018-02-22T22:15:03.157Z,1023.44
2018-02-22T22:20:03.668Z,1023.45
2018-02-22T22:25:03.282Z,1023.36
2018-02-22T22:30:02.724Z,1023.35
2018-02-22T22:35:03.330Z,1023.35
2018-02-22T22:40:02.775Z,1023.3
2018-02-22T22:45:03.157Z,1023.25
2018-02-22T22:50:03.614Z,1023.27
2018-02-22T22:55:03.016Z,1023.2
2018-02-22T23:00:03.467Z,1023.07
2018-02-22T23:05:03.608Z,1023.03
2018-02-22T23:10:03.283Z,1023.06
2018-02-22T23:15:02.696Z,1023.04
2018-02-22T23:20:03.360Z,1023.07
2018-02-22T23:25:02.777Z,1023.04
2018-02-22T23:30:02.936Z,1022.92
2018-02-22T23:35:03.441Z,1023.01
2018-02-22T23:40:03.021Z,1023.05
2018-02-22T23:45:03.738Z,1023.05
2018-02-22T23:50:03.204Z,1023.15
2018-02-22T23:55:03.634Z,1023.07
